createdAt,value
2023-01-20T00:02:54.164Z,5.75
2023-01-20T00:05:56.502Z,4.68
2023-01-20T00:09:02.108Z,4.45
2023-01-20T00:12:07.057Z,4.60
2023-01-20T00:15:11.348Z,3.90
2023-01-20T00:18:15.472Z,5.45
2023-01-20T00:21:18.144Z,4.32
2023-01-20T00:24:20.382Z,5.05
2023-01-20T00:27:22.378Z,4.85
2023-01-20T00:30:25.221Z,4.57
2023-01-20T00:33:30.430Z,5.13
2023-01-20T00:36:36.663Z,5.07
2023-01-20T00:39:41.291Z,4.53
2023-01-20T00:42:43.542Z,4.22
2023-01-20T00:45:45.676Z,5.22
2023-01-20T00:48:47.939Z,4.95
2023-01-20T00:51:51.223Z,5.60
2023-01-20T00:54:55.222Z,5.32
2023-01-20T00:57:57.990Z,4.97
2023-01-20T01:01:00.699Z,4.75
2023-01-20T01:04:04.284Z,4.35
2023-01-20T01:07:06.920Z,4.97
2023-01-20T01:10:10.733Z,5.93
2023-01-20T01:13:13.740Z,3.92
2023-01-20T01:16:16.662Z,5.15
2023-01-20T01:19:20.393Z,4.40
2023-01-20T01:22:22.782Z,5.03
2023-01-20T01:25:24.959Z,4.90
2023-01-20T01:28:27.259Z,5.38
2023-01-20T01:31:30.380Z,4.35
2023-01-20T01:34:32.678Z,4.10
2023-01-20T01:37:36.264Z,4.82
2023-01-20T01:40:38.409Z,4.63
2023-01-20T01:44:02.128Z,5.28
2023-01-20T01:47:06.712Z,4.90
2023-01-20T01:50:14.530Z,5.07
2023-01-20T01:53:18.743Z,6.13
2023-01-20T01:56:23.059Z,5.82
2023-01-20T01:59:25.353Z,5.20
2023-01-20T02:02:28.326Z,6.43
2023-01-20T02:05:34.228Z,6.32
2023-01-20T02:08:37.281Z,6.15
2023-01-20T02:11:45.549Z,7.30
2023-01-20T02:14:55.501Z,5.20
2023-01-20T02:18:30.028Z,6.97
2023-01-20T02:22:17.610Z,6.85
2023-01-20T02:25:44.187Z,7.63
2023-01-20T02:28:55.170Z,6.53
2023-01-20T02:32:11.902Z,6.50
2023-01-20T02:35:43.039Z,6.95
2023-01-20T02:39:01.268Z,6.28
2023-01-20T02:42:16.075Z,6.20
2023-01-20T02:45:32.782Z,5.63
2023-01-20T02:48:44.512Z,6.45
2023-01-20T02:52:10.995Z,6.03
2023-01-20T02:55:58.049Z,6.95
2023-01-20T02:59:05.742Z,5.55
2023-01-20T03:02:13.996Z,5.83
2023-01-20T03:05:25.865Z,5.88
2023-01-20T03:08:31.942Z,5.28
2023-01-20T03:11:40.554Z,5.78
2023-01-20T03:14:42.939Z,6.10
2023-01-20T03:17:46.261Z,5.78
2023-01-20T03:20:48.420Z,6.07
2023-01-20T03:23:55.979Z,5.85
2023-01-20T03:27:00.541Z,4.55
2023-01-20T03:30:02.776Z,4.93
2023-01-20T03:33:07.380Z,5.43
2023-01-20T03:36:10.261Z,4.30
2023-01-20T03:39:14.136Z,4.82
2023-01-20T03:42:29.069Z,4.43
2023-01-20T03:45:56.746Z,4.25
2023-01-20T03:49:11.990Z,4.25
2023-01-20T03:52:46.990Z,4.28
2023-01-20T03:56:02.623Z,5.07
2023-01-20T03:59:07.767Z,6.70
2023-01-20T04:02:12.624Z,5.68
2023-01-20T04:05:14.993Z,5.07
2023-01-20T04:08:22.841Z,5.05
2023-01-20T04:11:27.326Z,4.65
2023-01-20T04:14:29.382Z,5.45
2023-01-20T04:17:31.908Z,4.60
2023-01-20T04:20:34.273Z,4.82
2023-01-20T04:23:43.424Z,4.40
2023-01-20T04:26:45.638Z,4.53
2023-01-20T04:29:50.039Z,4.53
2023-01-20T04:32:52.178Z,4.75
2023-01-20T04:35:54.557Z,5.03
2023-01-20T04:38:57.285Z,4.65
2023-01-20T04:41:59.384Z,5.00
2023-01-20T04:45:01.450Z,4.82
2023-01-20T04:48:09.158Z,6.03
2023-01-20T04:51:12.892Z,4.60
2023-01-20T04:54:15.044Z,4.47
2023-01-20T04:57:17.198Z,3.53
2023-01-20T05:00:20.885Z,4.32
2023-01-20T05:03:23.119Z,3.92
2023-01-20T05:06:27.171Z,4.45
2023-01-20T05:09:30.226Z,4.15
2023-01-20T05:12:33.279Z,4.68
2023-01-20T05:15:39.511Z,4.10
2023-01-20T05:18:41.706Z,5.22
2023-01-20T05:21:46.104Z,5.13
2023-01-20T05:24:48.292Z,5.00
2023-01-20T05:27:50.686Z,4.43
2023-01-20T05:30:54.221Z,5.15
2023-01-20T05:33:58.999Z,3.25
2023-01-20T05:37:01.978Z,3.65
2023-01-20T05:40:05.090Z,4.05
2023-01-20T05:43:07.285Z,5.38
2023-01-20T05:46:12.253Z,3.67
2023-01-20T05:49:15.694Z,4.35
2023-01-20T05:52:17.625Z,3.20
2023-01-20T05:55:20.434Z,3.25
2023-01-20T05:58:23.052Z,2.72
2023-01-20T06:01:25.322Z,3.20
2023-01-20T06:04:29.825Z,3.70
2023-01-20T06:07:34.358Z,3.90
2023-01-20T06:10:36.527Z,4.70
2023-01-20T06:13:39.875Z,5.10
2023-01-20T06:16:42.987Z,4.10
2023-01-20T06:19:48.534Z,3.92
2023-01-20T06:22:55.504Z,5.05
2023-01-20T06:26:06.644Z,3.35
2023-01-20T06:29:09.881Z,5.05
2023-01-20T06:32:11.914Z,3.33
2023-01-20T06:35:14.531Z,3.97
2023-01-20T06:38:16.757Z,2.90
2023-01-20T06:41:21.311Z,2.88
2023-01-20T06:44:23.466Z,4.15
2023-01-20T06:47:25.519Z,2.70
2023-01-20T06:50:27.603Z,3.58
2023-01-20T06:53:31.159Z,3.67
2023-01-20T06:56:33.245Z,2.75
2023-01-20T06:59:35.565Z,3.70
2023-01-20T07:02:37.989Z,3.53
2023-01-20T07:05:40.135Z,3.28
2023-01-20T07:08:44.908Z,2.95
2023-01-20T07:11:48.004Z,3.70
2023-01-20T07:14:50.205Z,3.55
2023-01-20T07:17:52.387Z,3.38
2023-01-20T07:20:56.317Z,3.95
2023-01-20T07:24:01.986Z,3.92
2023-01-20T07:27:04.236Z,3.20
2023-01-20T07:30:07.107Z,4.45
2023-01-20T07:33:09.174Z,5.40
2023-01-20T07:36:12.848Z,4.30
2023-01-20T07:39:15.716Z,4.47
2023-01-20T07:42:17.854Z,4.75
2023-01-20T07:45:19.988Z,5.15
2023-01-20T07:48:22.411Z,3.90
2023-01-20T07:51:24.611Z,4.97
2023-01-20T07:54:26.596Z,4.72
2023-01-20T07:57:30.383Z,5.60
2023-01-20T08:00:32.351Z,5.28
2023-01-20T08:03:35.314Z,4.82
2023-01-20T08:06:37.561Z,4.80
2023-01-20T08:09:42.015Z,5.00
2023-01-20T08:12:44.049Z,4.57
2023-01-20T08:15:46.074Z,6.28
2023-01-20T08:18:51.510Z,5.78
2023-01-20T08:21:53.638Z,5.15
2023-01-20T08:24:55.811Z,6.88
2023-01-20T08:27:58.102Z,5.65
2023-01-20T08:31:15.960Z,6.15
2023-01-20T08:34:19.153Z,7.70
2023-01-20T08:37:21.441Z,6.65
2023-01-20T08:40:23.546Z,6.30
2023-01-20T08:43:25.563Z,5.55
2023-01-20T08:46:28.503Z,6.03
2023-01-20T08:49:30.747Z,4.70
2023-01-20T08:52:33.255Z,4.57
2023-01-20T08:55:35.528Z,4.80
2023-01-20T08:58:38.358Z,3.78
2023-01-20T09:01:42.315Z,3.75
2023-01-20T09:04:44.520Z,3.78
2023-01-20T09:07:46.605Z,3.10
2023-01-20T09:10:48.620Z,4.68
2023-01-20T09:13:51.430Z,3.95
2023-01-20T09:16:53.756Z,4.40
2023-01-20T09:19:56.335Z,4.13
2023-01-20T09:23:03.175Z,3.42
2023-01-20T09:26:07.382Z,3.47
2023-01-20T09:29:14.744Z,3.65
2023-01-20T09:32:16.896Z,5.88
2023-01-20T09:35:19.320Z,4.13
2023-01-20T09:38:41.576Z,4.13
2023-01-20T09:42:06.862Z,5.13
2023-01-20T09:45:22.953Z,4.30
2023-01-20T09:49:02.638Z,4.72
2023-01-20T09:52:37.873Z,5.03
2023-01-20T09:55:49.554Z,4.15
2023-01-20T09:59:01.031Z,3.70
2023-01-20T10:02:12.411Z,3.85
2023-01-20T10:05:21.180Z,4.07
2023-01-20T10:09:04.945Z,4.18
2023-01-20T10:12:07.830Z,4.65
2023-01-20T10:15:36.830Z,4.25
2023-01-20T10:18:49.655Z,4.43
2023-01-20T10:22:02.900Z,4.07
2023-01-20T10:25:14.523Z,4.63
2023-01-20T10:28:27.310Z,3.67
2023-01-20T10:31:35.354Z,3.38
2023-01-20T10:34:58.156Z,3.67
2023-01-20T10:38:05.265Z,4.90
2023-01-20T10:41:19.611Z,4.40
2023-01-20T10:44:24.682Z,3.35
2023-01-20T10:47:47.952Z,3.38
2023-01-20T10:51:09.181Z,3.88
2023-01-20T10:54:36.340Z,3.30
2023-01-20T10:57:39.215Z,3.60
2023-01-20T11:00:42.475Z,2.80
2023-01-20T11:03:47.283Z,3.67
2023-01-20T11:06:55.750Z,3.75
2023-01-20T11:10:00.930Z,3.88
2023-01-20T11:13:04.268Z,3.65
2023-01-20T11:16:40.948Z,4.22
2023-01-20T11:19:48.037Z,3.20
2023-01-20T11:22:50.762Z,3.72
2023-01-20T11:25:57.699Z,4.13
2023-01-20T11:29:24.327Z,3.20
2023-01-20T11:32:40.158Z,3.63
2023-01-20T11:36:00.731Z,2.97
2023-01-20T11:39:08.742Z,4.25
2023-01-20T11:42:18.013Z,3.72
2023-01-20T11:45:24.756Z,3.92
2023-01-20T11:48:26.874Z,3.33
2023-01-20T11:51:28.954Z,4.47
2023-01-20T11:54:31.202Z,4.20
2023-01-20T11:57:33.509Z,4.93
2023-01-20T12:00:41.175Z,4.93
2023-01-20T12:03:56.526Z,3.70
2023-01-20T12:07:31.847Z,4.00
2023-01-20T12:10:37.414Z,4.65
2023-01-20T12:14:03.926Z,4.85
2023-01-20T12:17:21.161Z,5.43
2023-01-20T12:20:54.802Z,4.75
2023-01-20T12:24:09.663Z,6.93
2023-01-20T12:27:21.271Z,6.05
2023-01-20T12:30:52.122Z,4.40
2023-01-20T12:34:05.354Z,4.75
2023-01-20T12:37:38.134Z,3.60
2023-01-20T12:40:49.118Z,4.65
2023-01-20T12:44:13.666Z,4.82
2023-01-20T12:47:31.228Z,5.43
2023-01-20T12:51:14.362Z,4.13
2023-01-20T12:54:47.339Z,4.75
2023-01-20T12:58:21.237Z,4.15
2023-01-20T13:01:38.247Z,3.85
2023-01-20T13:04:49.220Z,3.47
2023-01-20T13:08:20.737Z,3.78
2023-01-20T13:11:59.525Z,3.33
2023-01-20T13:15:43.349Z,5.20
2023-01-20T13:18:54.697Z,3.92
2023-01-20T13:22:07.913Z,2.72
2023-01-20T13:25:15.551Z,2.80
2023-01-20T13:28:19.936Z,4.35
2023-01-20T13:31:42.305Z,3.95
2023-01-20T13:34:44.513Z,3.03
2023-01-20T13:37:57.808Z,3.80
2023-01-20T13:41:03.600Z,3.85
2023-01-20T13:44:45.939Z,4.93
2023-01-20T13:48:21.843Z,5.15
2023-01-20T13:51:26.834Z,7.15
2023-01-20T13:54:37.223Z,5.15
2023-01-20T13:57:39.361Z,5.30
2023-01-20T14:00:41.632Z,4.40
2023-01-20T14:03:44.160Z,5.47
2023-01-20T14:06:53.781Z,5.57
2023-01-20T14:10:02.174Z,6.97
2023-01-20T14:13:10.632Z,5.63
2023-01-20T14:16:26.499Z,4.07
2023-01-20T14:19:35.511Z,4.88
2023-01-20T14:22:37.745Z,4.78
2023-01-20T14:25:39.802Z,4.95
2023-01-20T14:28:46.097Z,5.25
2023-01-20T14:31:48.348Z,4.85
2023-01-20T14:34:52.407Z,8.15
2023-01-20T14:37:59.159Z,8.23
2023-01-20T14:41:01.469Z,7.55
2023-01-20T14:44:04.181Z,9.32
2023-01-20T14:47:07.855Z,11.05
2023-01-20T14:50:16.082Z,10.13
2023-01-20T14:53:22.229Z,13.13
2023-01-20T14:56:25.248Z,12.55
2023-01-20T14:59:28.098Z,12.10
2023-01-20T15:02:35.721Z,11.13
2023-01-20T15:05:42.113Z,11.37
2023-01-20T15:08:57.006Z,10.50
2023-01-20T15:16:39.761Z,12.50
2023-01-20T15:19:47.740Z,9.10
2023-01-20T15:22:51.191Z,7.20
2023-01-20T15:25:54.585Z,7.22
2023-01-20T15:29:01.453Z,7.00
2023-01-20T15:32:13.767Z,8.38
2023-01-20T15:44:14.526Z,9.40
2023-01-20T15:51:50.649Z,8.48
2023-01-20T15:54:53.568Z,9.55
2023-01-20T15:57:56.013Z,8.32
2023-01-20T16:01:01.088Z,8.07
2023-01-20T16:04:03.849Z,9.38
2023-01-20T16:07:07.829Z,9.02
2023-01-20T16:10:18.552Z,8.98
2023-01-20T16:13:20.991Z,9.90
2023-01-20T16:16:26.840Z,10.43
2023-01-20T16:19:31.208Z,10.82
2023-01-20T16:22:34.576Z,9.57
2023-01-20T16:25:37.807Z,10.65
2023-01-20T16:28:39.809Z,10.10
2023-01-20T16:31:42.243Z,8.82
2023-01-20T16:34:44.689Z,10.32
2023-01-20T16:37:48.026Z,11.85
2023-01-20T16:40:51.528Z,11.32
2023-01-20T16:47:17.532Z,10.32
2023-01-20T16:50:23.619Z,10.40
2023-01-20T16:53:25.726Z,10.10
2023-01-20T16:56:30.284Z,11.43
2023-01-20T16:59:32.551Z,10.63
2023-01-20T17:02:34.643Z,10.75
2023-01-20T17:05:39.518Z,11.38
2023-01-20T17:08:46.992Z,11.57
2023-01-20T17:11:49.303Z,13.25
2023-01-20T17:14:52.142Z,11.75
2023-01-20T17:18:01.180Z,12.00
2023-01-20T17:21:07.992Z,10.25
2023-01-20T17:24:13.940Z,11.73
2023-01-20T17:27:19.609Z,11.23
2023-01-20T17:30:23.408Z,10.70
2023-01-20T17:33:26.752Z,11.07
2023-01-20T17:36:35.314Z,10.48
2023-01-20T17:39:37.668Z,10.18
2023-01-20T17:42:40.042Z,10.73
2023-01-20T17:45:44.220Z,10.55
2023-01-20T17:48:46.996Z,12.63
2023-01-20T17:51:54.542Z,10.93
2023-01-20T17:54:58.300Z,12.15
2023-01-20T17:58:00.432Z,10.30
2023-01-20T18:01:13.820Z,11.85
2023-01-20T18:04:16.495Z,16.55
2023-01-20T18:07:18.677Z,13.73
2023-01-20T18:10:20.840Z,14.38
2023-01-20T18:13:23.252Z,15.38
2023-01-20T18:16:31.710Z,14.48
2023-01-20T18:19:33.786Z,14.63
2023-01-20T18:22:36.198Z,16.40
2023-01-20T18:25:38.393Z,15.65
2023-01-20T18:28:41.748Z,15.00
2023-01-20T18:31:47.036Z,16.65
2023-01-20T18:34:49.731Z,13.98
2023-01-20T18:37:52.812Z,13.90
2023-01-20T18:40:54.886Z,14.93
2023-01-20T18:43:57.693Z,13.20
2023-01-20T18:46:59.837Z,13.43
2023-01-20T18:50:02.041Z,13.85
2023-01-20T18:53:04.460Z,13.00
2023-01-20T18:56:10.658Z,12.15
2023-01-20T18:59:13.673Z,12.63
2023-01-20T19:02:18.942Z,13.05
2023-01-20T19:05:23.739Z,11.88
2023-01-20T19:08:25.924Z,12.55
2023-01-20T19:11:34.351Z,12.05
2023-01-20T19:14:40.616Z,11.88
2023-01-20T19:17:43.012Z,12.95
2023-01-20T19:20:45.234Z,13.90
2023-01-20T19:24:19.242Z,13.07
2023-01-20T19:27:24.105Z,12.18
2023-01-20T19:30:26.537Z,12.85
2023-01-20T19:33:30.254Z,10.68
2023-01-20T19:36:34.716Z,13.13
2023-01-20T19:39:36.843Z,12.43
2023-01-20T19:42:38.904Z,11.70
2023-01-20T19:45:45.848Z,14.15
2023-01-20T19:48:58.051Z,12.43
2023-01-20T19:52:00.875Z,13.18
2023-01-20T19:55:03.119Z,13.55
2023-01-20T19:58:06.429Z,14.05
2023-01-20T20:01:20.411Z,13.40
2023-01-20T20:04:24.297Z,13.25
2023-01-20T20:07:26.545Z,12.93
2023-01-20T20:10:29.699Z,12.85
2023-01-20T20:13:31.747Z,13.20
2023-01-20T20:16:35.794Z,13.07
2023-01-20T20:19:37.955Z,13.18
2023-01-20T20:22:41.379Z,13.27
2023-01-20T20:25:48.667Z,13.02
2023-01-20T20:28:53.576Z,15.02
2023-01-20T20:31:55.945Z,13.35
2023-01-20T20:34:59.799Z,15.38
2023-01-20T20:38:02.151Z,14.77
2023-01-20T20:41:08.108Z,14.55
2023-01-20T20:44:11.272Z,15.25
2023-01-20T20:47:13.494Z,14.60
2023-01-20T20:50:16.545Z,14.20
2023-01-20T20:53:19.025Z,14.35
2023-01-20T20:56:23.414Z,14.52
2023-01-20T20:59:27.391Z,13.80
2023-01-20T21:02:30.702Z,14.82
2023-01-20T21:05:34.064Z,13.63
2023-01-20T21:08:40.242Z,14.23
2023-01-20T21:11:43.753Z,14.77
2023-01-20T21:14:46.204Z,15.00
2023-01-20T21:17:50.665Z,14.45
2023-01-20T21:21:01.987Z,13.40
2023-01-20T21:24:05.079Z,17.58
2023-01-20T21:27:07.196Z,17.15
2023-01-20T21:30:10.716Z,15.75
2023-01-20T21:33:18.435Z,16.95
2023-01-20T21:36:21.616Z,15.98
2023-01-20T21:39:23.975Z,17.10
2023-01-20T21:42:27.637Z,14.55
2023-01-20T21:45:29.752Z,18.50
2023-01-20T21:48:50.769Z,14.93
2023-01-20T21:52:11.583Z,15.18
2023-01-20T21:55:19.080Z,16.20
2023-01-20T21:58:22.129Z,17.67
2023-01-20T22:01:24.671Z,16.08
2023-01-20T22:04:26.868Z,15.93
2023-01-20T22:07:29.065Z,18.17
2023-01-20T22:10:32.756Z,16.23
2023-01-20T22:13:36.192Z,16.33
2023-01-20T22:16:38.588Z,17.48
2023-01-20T22:19:40.872Z,16.23
2023-01-20T22:22:43.926Z,14.90
2023-01-20T22:25:47.154Z,13.85
2023-01-20T22:28:49.304Z,13.55
2023-01-20T22:31:54.283Z,11.82
2023-01-20T22:34:56.405Z,10.48
2023-01-20T22:38:01.230Z,10.05
2023-01-20T22:41:05.571Z,9.13
2023-01-20T22:44:08.761Z,7.38
2023-01-20T22:47:11.115Z,8.45
2023-01-20T22:50:13.363Z,6.57
2023-01-20T22:53:15.400Z,8.00
2023-01-20T22:56:20.774Z,6.95
2023-01-20T22:59:25.305Z,7.10
2023-01-20T23:02:27.514Z,6.85
2023-01-20T23:05:31.320Z,6.07
2023-01-20T23:08:34.033Z,5.30
2023-01-20T23:11:38.534Z,6.47
2023-01-20T23:14:58.946Z,6.05
2023-01-20T23:18:02.987Z,7.30
2023-01-20T23:21:08.135Z,6.47
2023-01-20T23:24:10.571Z,7.05
2023-01-20T23:27:12.829Z,7.25
2023-01-20T23:30:15.307Z,7.20
2023-01-20T23:33:19.678Z,6.28
2023-01-20T23:36:24.468Z,8.50
2023-01-20T23:39:26.590Z,7.30
2023-01-20T23:42:28.541Z,6.65
2023-01-20T23:45:30.690Z,6.60
2023-01-20T23:48:33.834Z,6.30
2023-01-20T23:51:37.288Z,6.75
2023-01-20T23:54:41.640Z,6.40
2023-01-20T23:57:43.787Z,6.55
